Time,TemperatureF,DewpointF,PressureIn,WindDirection,WindDirectionDegrees,WindSpeedMPH,WindSpeedGustMPH,Humidity,HourlyPrecipIn,Conditions,Clouds,dailyrainin,SoftwareType,DateUTC
2013-04-28 00:00:00,70.1,65.0,30.06,West,269,1.0,1.0,85,0.00,,,0.00,weatherlink.com 1.10,2013-04-28 05:00:00,
2013-04-28 00:15:00,69.7,65.0,30.07,WSW,239,0.0,1.0,86,0.00,,,0.00,weatherlink.com 1.10,2013-04-28 05:15:00,
2013-04-28 00:30:00,69.3,66.0,30.07,South,172,2.0,2.0,88,0.00,,,0.00,weatherlink.com 1.10,2013-04-28 05:30:00,
2013-04-28 00:45:00,68.5,64.0,30.06,SSE,155,3.0,5.0,85,0.00,,,0.00,weatherlink.com 1.10,2013-04-28 05:45:00,
2013-04-28 01:00:00,67.4,64.0,30.05,SE,145,1.0,4.0,89,0.02,,,0.02,weatherlink.com 1.10,2013-04-28 06:00:00,
2013-04-28 01:15:00,66.1,63.0,30.04,South,170,0.0,1.0,90,0.04,,,0.04,weatherlink.com 1.10,2013-04-28 06:15:00,
2013-04-28 01:30:00,65.6,63.0,30.04,West,266,0.0,1.0,92,0.05,,,0.05,weatherlink.com 1.10,2013-04-28 06:30:00,
2013-04-28 01:45:00,65.6,64.0,30.03,WSW,246,0.0,1.0,93,0.05,,,0.05,weatherlink.com 1.10,2013-04-28 06:45:00,
2013-04-28 02:00:00,65.7,64.0,30.03,SW,224,0.0,1.0,94,0.03,,,0.05,weatherlink.com 1.10,2013-04-28 07:00:00,
2013-04-28 02:15:00,65.8,64.0,30.02,SW,223,0.0,1.0,94,0.01,,,0.05,weatherlink.com 1.10,2013-04-28 07:15:00,
2013-04-28 02:31:00,66.2,65.0,30.02,South,170,2.0,2.0,95,0.00,,,0.05,weatherlink.com 1.10,2013-04-28 07:31:00,
2013-04-28 02:46:00,66.7,65.0,30.01,South,173,1.0,3.0,95,0.00,,,0.05,weatherlink.com 1.10,2013-04-28 07:46:00,
2013-04-28 03:01:00,67.3,66.0,30.01,SSE,150,1.0,3.0,95,0.00,,,0.05,weatherlink.com 1.10,2013-04-28 08:01:00,
2013-04-28 03:16:00,67.7,66.0,30.01,South,176,2.0,4.0,95,0.00,,,0.05,weatherlink.com 1.10,2013-04-28 08:16:00,
2013-04-28 03:31:00,68.0,67.0,30.00,South,174,2.0,3.0,95,0.00,,,0.05,weatherlink.com 1.10,2013-04-28 08:31:00,
2013-04-28 03:46:00,68.1,67.0,30.00,SSE,148,2.0,4.0,95,0.00,,,0.05,weatherlink.com 1.10,2013-04-28 08:46:00,
2013-04-28 04:01:00,68.2,67.0,29.98,SSW,198,2.0,5.0,95,0.00,,,0.05,weatherlink.com 1.10,2013-04-28 09:01:00,
2013-04-28 04:16:00,68.3,67.0,29.99,South,177,0.0,2.0,95,0.00,,,0.05,weatherlink.com 1.10,2013-04-28 09:16:00,
2013-04-28 04:31:00,68.3,67.0,30.00,WSW,245,1.0,4.0,95,0.00,,,0.05,weatherlink.com 1.10,2013-04-28 09:31:00,
2013-04-28 04:46:00,68.3,67.0,30.01,WSW,246,0.0,3.0,95,0.00,,,0.05,weatherlink.com 1.10,2013-04-28 09:46:00,
2013-04-28 05:01:00,68.4,67.0,30.01,West,276,2.0,3.0,95,0.00,,,0.05,weatherlink.com 1.10,2013-04-28 10:01:00,
2013-04-28 05:16:00,68.4,67.0,30.00,South,169,0.0,1.0,95,0.00,,,0.05,weatherlink.com 1.10,2013-04-28 10:16:00,
2013-04-28 05:31:00,68.3,67.0,30.01,West,271,0.0,1.0,95,0.00,,,0.05,weatherlink.com 1.10,2013-04-28 10:31:00,
2013-04-28 05:46:00,68.3,67.0,30.00,South,174,0.0,1.0,95,0.00,,,0.05,weatherlink.com 1.10,2013-04-28 10:46:00,
2013-04-28 06:01:00,68.3,67.0,30.00,South,170,0.0,1.0,95,0.00,,,0.05,weatherlink.com 1.10,2013-04-28 11:01:00,
2013-04-28 06:16:00,68.3,67.0,30.01,South,174,0.0,2.0,95,0.00,,,0.05,weatherlink.com 1.10,2013-04-28 11:16:00,
2013-04-28 06:31:00,68.3,67.0,30.01,SSW,196,1.0,2.0,95,0.00,,,0.05,weatherlink.com 1.10,2013-04-28 11:31:00,
2013-04-28 06:46:00,68.3,67.0,30.01,South,181,0.0,2.0,96,0.00,,,0.05,weatherlink.com 1.10,2013-04-28 11:46:00,
2013-04-28 07:01:00,68.4,67.0,30.01,South,170,1.0,2.0,96,0.00,,,0.05,weatherlink.com 1.10,2013-04-28 12:01:00,
2013-04-28 07:16:00,68.6,68.0,30.02,West,266,0.0,1.0,96,0.00,,,0.05,weatherlink.com 1.10,2013-04-28 12:16:00,
2013-04-28 07:31:00,68.8,68.0,30.02,South,173,1.0,2.0,96,0.00,,,0.05,weatherlink.com 1.10,2013-04-28 12:31:00,
2013-04-28 07:46:00,69.2,68.0,30.01,SSE,152,2.0,4.0,95,0.00,,,0.05,weatherlink.com 1.10,2013-04-28 12:46:00,
2013-04-28 08:01:00,69.6,68.0,30.02,SW,226,2.0,2.0,95,0.00,,,0.05,weatherlink.com 1.10,2013-04-28 13:01:00,
2013-04-28 08:16:00,70.1,68.0,30.02,South,170,3.0,4.0,94,0.00,,,0.05,weatherlink.com 1.10,2013-04-28 13:16:00,
2013-04-28 08:31:00,70.1,68.0,30.01,WSW,243,0.0,4.0,93,0.00,,,0.05,weatherlink.com 1.10,2013-04-28 13:31:00,
2013-04-28 08:46:00,70.4,68.0,30.02,SSW,211,0.0,4.0,92,0.00,,,0.05,weatherlink.com 1.10,2013-04-28 13:46:00,
2013-04-28 09:01:00,70.3,68.0,30.02,SSW,201,1.0,2.0,92,0.00,,,0.05,weatherlink.com 1.10,2013-04-28 14:01:00,
2013-04-28 09:16:00,70.3,68.0,30.01,SSE,162,4.0,4.0,92,0.00,,,0.05,weatherlink.com 1.10,2013-04-28 14:16:00,
2013-04-28 09:31:00,70.7,68.0,30.00,South,172,2.0,5.0,92,0.00,,,0.05,weatherlink.com 1.10,2013-04-28 14:31:00,
2013-04-28 09:46:00,72.5,69.0,30.00,West,266,3.0,5.0,89,0.00,,,0.05,weatherlink.com 1.10,2013-04-28 14:46:00,
2013-04-28 10:01:00,72.9,69.0,30.00,SSW,212,2.0,12.0,86,0.00,,,0.05,weatherlink.com 1.10,2013-04-28 15:01:00,
2013-04-28 10:16:00,73.3,68.0,30.00,WSW,248,1.0,9.0,84,0.00,,,0.05,weatherlink.com 1.10,2013-04-28 15:16:00,
2013-04-28 10:31:00,73.4,68.0,30.00,SSW,194,1.0,7.0,84,0.00,,,0.05,weatherlink.com 1.10,2013-04-28 15:31:00,
2013-04-28 10:46:00,73.5,68.0,30.01,West,268,3.0,11.0,82,0.00,,,0.05,weatherlink.com 1.10,2013-04-28 15:46:00,
2013-04-28 11:01:00,73.6,68.0,30.01,WNW,285,4.0,10.0,82,0.00,,,0.05,weatherlink.com 1.10,2013-04-28 16:01:00,
2013-04-28 11:16:00,73.6,67.0,30.02,West,271,2.0,8.0,80,0.00,,,0.05,weatherlink.com 1.10,2013-04-28 16:16:00,
2013-04-28 11:31:00,73.7,67.0,30.01,West,266,2.0,5.0,80,0.00,,,0.05,weatherlink.com 1.10,2013-04-28 16:31:00,
2013-04-28 11:46:00,73.8,67.0,30.01,SSW,210,1.0,5.0,78,0.00,,,0.05,weatherlink.com 1.10,2013-04-28 16:46:00,
2013-04-28 12:01:00,73.7,67.0,30.01,SW,214,1.0,3.0,79,0.00,,,0.05,weatherlink.com 1.10,2013-04-28 17:01:00,
2013-04-28 12:16:00,73.0,67.0,30.01,WNW,283,4.0,6.0,82,0.00,,,0.05,weatherlink.com 1.10,2013-04-28 17:16:00,
2013-04-28 12:31:00,72.4,67.0,30.01,WSW,244,1.0,4.0,84,0.00,,,0.05,weatherlink.com 1.10,2013-04-28 17:31:00,
2013-04-28 12:46:00,72.2,67.0,30.01,SW,219,0.0,5.0,83,0.00,,,0.05,weatherlink.com 1.10,2013-04-28 17:46:00,
2013-04-28 13:01:00,72.5,67.0,30.00,SSW,192,2.0,4.0,82,0.00,,,0.05,weatherlink.com 1.10,2013-04-28 18:01:00,
2013-04-28 13:16:00,72.5,65.0,30.01,NE,41,4.0,6.0,78,0.00,,,0.05,weatherlink.com 1.10,2013-04-28 18:16:00,
2013-04-28 13:31:00,72.2,64.0,30.01,NW,316,1.0,7.0,75,0.00,,,0.05,weatherlink.com 1.10,2013-04-28 18:31:00,
2013-04-28 13:46:00,72.2,64.0,29.99,West,281,1.0,4.0,76,0.00,,,0.05,weatherlink.com 1.10,2013-04-28 18:46:00,
2013-04-28 14:01:00,73.4,64.0,30.00,WSW,242,5.0,7.0,72,0.00,,,0.05,weatherlink.com 1.10,2013-04-28 19:01:00,
2013-04-28 14:16:00,73.5,64.0,29.99,NNE,19,5.0,6.0,73,0.00,,,0.05,weatherlink.com 1.10,2013-04-28 19:16:00,
2013-04-28 14:31:00,73.1,64.0,29.98,WSW,250,0.0,3.0,73,0.00,,,0.05,weatherlink.com 1.10,2013-04-28 19:31:00,
2013-04-28 14:46:00,72.8,64.0,29.98,NNE,13,0.0,3.0,73,0.00,,,0.05,weatherlink.com 1.10,2013-04-28 19:46:00,
2013-04-28 15:01:00,72.0,63.0,29.96,West,277,0.0,4.0,74,0.00,,,0.05,weatherlink.com 1.10,2013-04-28 20:01:00,
2013-04-28 15:16:00,71.9,63.0,29.96,SW,229,0.0,1.0,74,0.00,,,0.05,weatherlink.com 1.10,2013-04-28 20:16:00,
2013-04-28 15:31:00,71.7,63.0,29.95,West,260,0.0,0.0,74,0.00,,,0.05,weatherlink.com 1.10,2013-04-28 20:31:00,
2013-04-28 15:46:00,71.6,63.0,29.95,SW,226,0.0,1.0,75,0.00,,,0.05,weatherlink.com 1.10,2013-04-28 20:46:00,
2013-04-28 16:01:00,71.6,64.0,29.95,SW,228,0.0,0.0,77,0.00,,,0.05,weatherlink.com 1.10,2013-04-28 21:01:00,
2013-04-28 16:16:00,71.4,64.0,29.95,SW,228,0.0,0.0,78,0.00,,,0.05,weatherlink.com 1.10,2013-04-28 21:16:00,
2013-04-28 16:31:00,71.2,64.0,29.96,West,267,0.0,1.0,79,0.00,,,0.05,weatherlink.com 1.10,2013-04-28 21:31:00,
2013-04-28 16:46:00,71.1,65.0,29.97,South,188,0.0,1.0,80,0.00,,,0.05,weatherlink.com 1.10,2013-04-28 21:46:00,
2013-04-28 17:01:00,71.0,64.0,29.96,South,188,0.0,0.0,79,0.00,,,0.05,weatherlink.com 1.10,2013-04-28 22:01:00,
2013-04-28 17:17:00,70.5,65.0,29.96,South,188,0.0,0.0,82,0.00,,,0.05,weatherlink.com 1.10,2013-04-28 22:17:00,
2013-04-28 17:31:00,70.2,65.0,29.96,South,188,0.0,0.0,84,0.00,,,0.05,weatherlink.com 1.10,2013-04-28 22:31:00,
2013-04-28 17:47:00,69.8,65.0,29.96,South,188,0.0,0.0,85,0.00,,,0.05,weatherlink.com 1.10,2013-04-28 22:47:00,
2013-04-28 18:02:00,69.7,65.0,29.95,South,188,0.0,0.0,85,0.00,,,0.05,weatherlink.com 1.10,2013-04-28 23:02:00,
2013-04-28 18:17:00,69.7,66.0,29.96,South,188,0.0,0.0,87,0.00,,,0.05,weatherlink.com 1.10,2013-04-28 23:17:00,
2013-04-28 18:32:00,69.8,66.0,29.95,South,188,0.0,0.0,86,0.00,,,0.05,weatherlink.com 1.10,2013-04-28 23:32:00,
2013-04-28 18:47:00,69.7,65.0,29.95,South,188,0.0,0.0,86,0.00,,,0.05,weatherlink.com 1.10,2013-04-28 23:47:00,
2013-04-28 19:02:00,69.5,65.0,29.95,South,188,0.0,0.0,86,0.00,,,0.05,weatherlink.com 1.10,2013-04-29 00:02:00,
2013-04-28 19:17:00,69.1,65.0,29.94,South,188,0.0,0.0,87,0.00,,,0.05,weatherlink.com 1.10,2013-04-29 00:17:00,
2013-04-28 19:32:00,68.9,66.0,29.94,South,188,0.0,0.0,89,0.00,,,0.05,weatherlink.com 1.10,2013-04-29 00:32:00,
2013-04-28 19:47:00,68.7,65.0,29.95,South,188,0.0,0.0,89,0.00,,,0.05,weatherlink.com 1.10,2013-04-29 00:47:00,
2013-04-28 20:02:00,68.1,65.0,29.95,South,188,0.0,0.0,90,0.00,,,0.05,weatherlink.com 1.10,2013-04-29 01:02:00,
2013-04-28 20:17:00,67.5,65.0,29.95,South,188,0.0,0.0,91,0.00,,,0.05,weatherlink.com 1.10,2013-04-29 01:17:00,
2013-04-28 20:32:00,67.2,65.0,29.96,SE,141,1.0,1.0,91,0.00,,,0.05,weatherlink.com 1.10,2013-04-29 01:32:00,
2013-04-28 20:47:00,66.9,64.0,29.96,SE,145,0.0,1.0,91,0.00,,,0.05,weatherlink.com 1.10,2013-04-29 01:47:00,
2013-04-28 21:02:00,66.5,64.0,29.97,SE,145,0.0,0.0,90,0.00,,,0.05,weatherlink.com 1.10,2013-04-29 02:02:00,
2013-04-28 21:17:00,66.1,64.0,29.97,SE,145,0.0,0.0,91,0.00,,,0.05,weatherlink.com 1.10,2013-04-29 02:17:00,
2013-04-28 21:32:00,65.6,63.0,29.98,SE,141,1.0,1.0,90,0.00,,,0.05,weatherlink.com 1.10,2013-04-29 02:32:00,
2013-04-28 21:47:00,65.7,62.0,29.98,SE,134,0.0,1.0,88,0.00,,,0.05,weatherlink.com 1.10,2013-04-29 02:47:00,
2013-04-28 22:02:00,65.4,62.0,29.98,SSE,155,1.0,1.0,87,0.00,,,0.05,weatherlink.com 1.10,2013-04-29 03:02:00,
2013-04-28 22:17:00,65.0,61.0,29.99,SSE,165,0.0,1.0,87,0.00,,,0.05,weatherlink.com 1.10,2013-04-29 03:17:00,
2013-04-28 22:32:00,64.5,61.0,29.99,SSE,165,0.0,0.0,88,0.00,,,0.05,weatherlink.com 1.10,2013-04-29 03:32:00,
2013-04-28 22:47:00,63.8,61.0,29.99,SSE,165,0.0,0.0,89,0.00,,,0.05,weatherlink.com 1.10,2013-04-29 03:47:00,
2013-04-28 23:02:00,63.4,60.0,29.99,SSE,165,0.0,1.0,89,0.00,,,0.05,weatherlink.com 1.10,2013-04-29 04:02:00,
2013-04-28 23:17:00,63.3,60.0,29.99,South,173,0.0,1.0,89,0.00,,,0.05,weatherlink.com 1.10,2013-04-29 04:17:00,
2013-04-28 23:32:00,63.0,60.0,29.98,South,169,1.0,1.0,89,0.00,,,0.05,weatherlink.com 1.10,2013-04-29 04:32:00,
2013-04-28 23:47:00,62.6,60.0,29.98,South,169,0.0,0.0,90,0.00,,,0.05,weatherlink.com 1.10,2013-04-29 04:47:00,